Disclaimer

Please do not use the information listed here in-flight or in-navigation, as they are not provided to us by the airports but are provided by volunteers, so they might be outdated.

Search


Regions


Airport information page

Radio informations:
PENGEL TWR - 118.5 MHz
Ground (GND) - 121.9 MHz
PENGEL APP - 120.0 MHz

Airport informations:
Latitude: 05° 27' 10.19" N
Longitude: 055° 11' 16.02" W
Elevation: 59 feet - 18 meters
Operating hours: N/A
Operating agency: Civil government, landing fees and diplomatic clearance may be required
Timezone: UTC-3
Fuel: Jet A1, without icing nhibitor.

100/130 octane gasoline, leaded, MIL-L-5572F (GREEN)

Runway information:
11/29 - 11417 x 148 feet< - >3480 x 45 meters

Recent METARs:
SMJP 131800Z VRB07KT 9999 VCSH FEW010 FEW018CB 32/23 Q1009 RETS NOSIG
SMJP 131900Z 21008KT 9999 -SHRA FEW012 FEW018CB 28/22 Q1009 NOSIG
SMJP 131900Z 21008KT 9999 -SHRA FEW012 FEW018CB 28/22 Q1009 NOSIG

Airport on the map: